Time;durP1;ratioP1;P1;durP2;ratioP2;P2;SDS_P1;SDS_P2;PMS_P1;PMS_P2;Temp;Humidity;BMP_temperature;BMP_pressure;BME280_temperature;BME280_humidity;BME280_pressure;Samples;Min_cycle;Max_cycle;Signal;HPM_P1;HPM_P2
2023/12/24 00:00:52;;;;;;;12.05;2.58;;;9.40;95.60;;;;;;5093013;28;20040;-80
2023/12/24 00:03:18;;;;;;;14.35;3.35;;;9.40;95.70;;;;;;5092934;28;20040;-80
2023/12/24 00:05:44;;;;;;;17.10;5.07;;;9.40;95.70;;;;;;5093214;28;20047;-79
2023/12/24 00:08:09;;;;;;;16.73;4.05;;;9.40;95.70;;;;;;5076229;28;20044;-78
2023/12/24 00:10:36;;;;;;;19.83;4.20;;;9.40;95.80;;;;;;5093295;28;20507;-80
2023/12/24 00:13:01;;;;;;;14.75;4.18;;;9.30;95.90;;;;;;5093344;28;20396;-78
2023/12/24 00:15:27;;;;;;;16.52;4.70;;;9.30;95.90;;;;;;5093046;28;20040;-78
2023/12/24 00:17:53;;;;;;;15.25;3.88;;;9.40;95.90;;;;;;5093302;28;20036;-78
2023/12/24 00:20:18;;;;;;;21.88;4.32;;;9.40;95.90;;;;;;5075847;28;20118;-78
2023/12/24 00:23:06;;;;;;;17.90;4.00;;;9.30;95.90;;;;;;5092963;28;20112;-79
2023/12/24 00:25:32;;;;;;;11.80;2.97;;;9.30;96.00;;;;;;5093003;28;20036;-76
2023/12/24 00:28:00;;;;;;;14.45;4.55;;;9.30;96.00;;;;;;5092591;28;20122;-80
2023/12/24 00:30:27;;;;;;;13.77;3.47;;;9.30;96.00;;;;;;5092689;28;20036;-77
2023/12/24 00:32:54;;;;;;;13.88;3.35;;;9.40;96.00;;;;;;5092169;28;20039;-79
2023/12/24 00:35:23;;;;;;;23.88;4.80;;;9.30;96.20;;;;;;5092355;28;20036;-78
2023/12/24 00:37:49;;;;;;;14.15;3.15;;;9.30;96.20;;;;;;5092185;28;20036;-77
2023/12/24 00:40:16;;;;;;;13.77;4.30;;;9.30;96.10;;;;;;5092016;28;20036;-78
2023/12/24 00:42:42;;;;;;;10.05;2.45;;;9.30;96.30;;;;;;5092193;28;20114;-77
2023/12/24 00:45:08;;;;;;;16.08;4.43;;;9.40;96.20;;;;;;5092227;28;20040;-77
2023/12/24 00:47:34;;;;;;;19.77;3.72;;;9.50;96.00;;;;;;5092141;28;20113;-78
2023/12/24 00:50:00;;;;;;;12.80;3.92;;;9.40;96.00;;;;;;5092220;28;20040;-80
2023/12/24 00:52:26;;;;;;;24.40;4.68;;;9.40;96.20;;;;;;5075456;28;20040;-78
2023/12/24 00:54:52;;;;;;;15.23;4.32;;;9.40;96.10;;;;;;5091917;28;20032;-80
2023/12/24 00:57:17;;;;;;;23.10;3.60;;;9.40;96.20;;;;;;5095369;28;20043;-78
2023/12/24 00:59:43;;;;;;;14.35;3.33;;;9.30;96.30;;;;;;5082285;28;20043;-79
2023/12/24 01:02:09;;;;;;;17.52;3.47;;;9.50;96.40;;;;;;5098976;28;20127;-78
2023/12/24 01:04:34;;;;;;;9.52;3.28;;;9.40;96.40;;;;;;5081859;28;20408;-77
2023/12/24 01:07:00;;;;;;;13.07;2.33;;;9.40;96.40;;;;;;5082044;28;20044;-78
2023/12/24 01:09:26;;;;;;;17.67;3.78;;;9.50;96.40;;;;;;5098726;28;20045;-76
2023/12/24 01:11:55;;;;;;;20.00;4.25;;;9.30;96.50;;;;;;5082221;28;20046;-79
2023/12/24 01:14:20;;;;;;;16.73;3.45;;;9.30;96.60;;;;;;5098905;28;20032;-77
2023/12/24 01:16:46;;;;;;;11.98;3.25;;;9.30;96.60;;;;;;5082146;28;20089;-77
2023/12/24 01:19:12;;;;;;;15.75;3.63;;;9.30;96.80;;;;;;5098953;28;20096;-78
2023/12/24 01:21:38;;;;;;;21.60;4.28;;;9.30;96.80;;;;;;5098845;28;20039;-78
2023/12/24 01:24:05;;;;;;;19.48;5.20;;;9.30;96.70;;;;;;5082297;28;20040;-77
2023/12/24 01:26:34;;;;;;;17.63;3.67;;;9.20;96.90;;;;;;5098819;28;20479;-76
2023/12/24 01:29:00;;;;;;;14.10;4.40;;;9.20;97.10;;;;;;5082207;28;20506;-76
2023/12/24 01:31:27;;;;;;;15.20;3.55;;;9.30;97.00;;;;;;5098682;28;20040;-77
2023/12/24 01:33:53;;;;;;;18.30;3.28;;;9.30;97.20;;;;;;5098701;28;20051;-78
2023/12/24 01:36:19;;;;;;;9.40;2.55;;;9.30;97.10;;;;;;5081894;28;20040;-76
2023/12/24 01:38:45;;;;;;;19.13;3.60;;;9.30;97.00;;;;;;5099115;27;20554;-80
2023/12/24 01:41:12;;;;;;;15.45;3.65;;;9.30;97.00;;;;;;5098549;28;20055;-80
2023/12/24 01:43:41;;;;;;;16.75;3.80;;;9.30;97.10;;;;;;5081609;28;20097;-77
2023/12/24 01:46:09;;;;;;;17.70;3.42;;;9.30;97.10;;;;;;5098870;28;20036;-80
2023/12/24 01:48:36;;;;;;;20.90;5.53;;;9.40;97.00;;;;;;5098568;28;20125;-80
2023/12/24 01:51:02;;;;;;;14.70;3.60;;;9.30;97.00;;;;;;5098787;28;20043;-81
2023/12/24 01:53:29;;;;;;;14.68;4.03;;;9.30;97.00;;;;;;5099002;28;20376;-77
2023/12/24 01:55:55;;;;;;;28.10;4.25;;;9.30;97.10;;;;;;5098614;28;20032;-80
2023/12/24 01:58:21;;;;;;;19.00;4.43;;;9.30;97.20;;;;;;5098493;28;20051;-81
2023/12/24 02:00:47;;;;;;;13.63;3.53;;;9.30;97.20;;;;;;5098291;28;20089;-78
2023/12/24 02:03:13;;;;;;;16.92;4.50;;;9.30;97.10;;;;;;5081288;28;20039;-79
2023/12/24 02:05:40;;;;;;;13.93;3.72;;;9.30;97.10;;;;;;5098277;28;20036;-79
2023/12/24 02:08:07;;;;;;;22.05;5.05;;;9.30;97.20;;;;;;5097448;28;20040;-80
2023/12/24 02:10:33;;;;;;;19.20;3.95;;;9.30;97.20;;;;;;5078281;28;20044;-76
2023/12/24 02:12:59;;;;;;;17.70;3.83;;;9.30;97.00;;;;;;5078213;28;20034;-79
2023/12/24 02:15:25;;;;;;;19.98;4.53;;;9.30;97.10;;;;;;5095095;28;20082;-78
2023/12/24 02:17:51;;;;;;;18.50;4.40;;;9.30;97.20;;;;;;5078499;28;20032;-76
2023/12/24 02:20:24;;;;;;;21.10;3.90;;;9.30;97.20;;;;;;5078372;28;20097;-81
2023/12/24 02:22:50;;;;;;;17.88;4.82;;;9.30;97.20;;;;;;5095068;28;20040;-78
2023/12/24 02:25:16;;;;;;;18.95;4.80;;;9.30;97.30;;;;;;5078330;28;20127;-79
2023/12/24 02:28:02;;;;;;;19.88;3.33;;;9.30;97.40;;;;;;5078011;28;20047;-76
2023/12/24 02:30:33;;;;;;;23.30;4.43;;;9.30;97.40;;;;;;5094801;28;20135;-76
2023/12/24 02:33:05;;;;;;;18.58;3.22;;;9.30;97.50;;;;;;5095321;28;20105;-80
2023/12/24 02:35:34;;;;;;;16.35;3.50;;;9.30;97.50;;;;;;5094894;28;20032;-80
2023/12/24 02:38:00;;;;;;;24.50;4.22;;;9.30;97.40;;;;;;5094631;28;20085;-80
2023/12/24 02:40:26;;;;;;;22.23;4.25;;;9.30;97.40;;;;;;5094648;28;20036;-77
2023/12/24 02:42:52;;;;;;;24.95;5.60;;;9.30;97.60;;;;;;5094647;28;20561;-79
2023/12/24 02:45:17;;;;;;;15.18;3.72;;;9.40;97.70;;;;;;5094528;28;20042;-78
2023/12/24 02:47:43;;;;;;;16.55;3.75;;;9.40;97.60;;;;;;5094237;28;20067;-78
2023/12/24 02:50:09;;;;;;;19.73;4.20;;;9.40;97.60;;;;;;5077695;28;20050;-79
2023/12/24 02:52:35;;;;;;;11.95;3.40;;;9.40;97.70;;;;;;5077545;28;20380;-77
2023/12/24 02:55:00;;;;;;;15.40;4.32;;;9.50;97.70;;;;;;5077679;28;20050;-80
2023/12/24 02:57:26;;;;;;;17.13;3.15;;;9.50;97.60;;;;;;5094275;28;20032;-76
2023/12/24 02:59:52;;;;;;;12.45;2.70;;;9.40;97.70;;;;;;5094680;28;20040;-77
2023/12/24 03:02:18;;;;;;;13.55;3.42;;;9.40;97.80;;;;;;5077308;28;20047;-77
2023/12/24 03:04:43;;;;;;;8.00;2.95;;;9.50;97.80;;;;;;5077327;28;20040;-80
2023/12/24 03:07:09;;;;;;;13.43;3.88;;;9.50;97.90;;;;;;5093996;28;20044;-80
2023/12/24 03:09:35;;;;;;;19.50;3.65;;;9.50;97.90;;;;;;5077118;28;20054;-77
2023/12/24 03:12:01;;;;;;;14.35;3.10;;;9.50;98.00;;;;;;5093735;28;20046;-79
2023/12/24 03:14:27;;;;;;;9.18;2.67;;;9.50;98.10;;;;;;5094148;28;20044;-76
2023/12/24 03:16:54;;;;;;;11.63;3.53;;;9.50;98.10;;;;;;5093812;28;20101;-76
2023/12/24 03:19:20;;;;;;;13.80;3.50;;;9.50;98.00;;;;;;5077589;28;20039;-77
2023/12/24 03:21:46;;;;;;;9.10;3.35;;;9.50;98.20;;;;;;5093704;28;20506;-76
2023/12/24 03:24:12;;;;;;;9.65;3.30;;;9.50;98.30;;;;;;5093669;28;20052;-77
2023/12/24 03:26:38;;;;;;;10.85;3.00;;;9.50;98.30;;;;;;5093735;28;20122;-78
2023/12/24 03:29:03;;;;;;;12.88;4.15;;;9.50;98.30;;;;;;5093573;28;20043;-76
2023/12/24 03:31:29;;;;;;;8.88;3.13;;;9.50;98.30;;;;;;5093378;28;20039;-77
2023/12/24 03:33:55;;;;;;;9.77;3.05;;;9.50;98.40;;;;;;5094030;28;20047;-76
2023/12/24 03:36:20;;;;;;;8.13;2.72;;;9.50;98.30;;;;;;5076553;28;20618;-78
2023/12/24 03:38:46;;;;;;;10.13;3.17;;;9.50;98.40;;;;;;5076633;28;20082;-79
2023/12/24 03:41:12;;;;;;;8.10;2.70;;;9.50;98.30;;;;;;5076563;28;20063;-77
2023/12/24 03:43:38;;;;;;;7.22;2.70;;;9.50;98.30;;;;;;5093054;28;20036;-77
2023/12/24 03:46:04;;;;;;;11.63;3.05;;;9.60;98.30;;;;;;5093030;28;20042;-79
2023/12/24 03:48:32;;;;;;;7.85;2.50;;;9.50;98.40;;;;;;5092863;28;20048;-79
2023/12/24 03:50:58;;;;;;;4.32;2.35;;;9.60;98.30;;;;;;5092889;28;20054;-78
2023/12/24 03:53:23;;;;;;;7.97;3.22;;;9.60;98.50;;;;;;5076467;28;20040;-77
2023/12/24 03:55:49;;;;;;;7.45;3.03;;;9.60;98.50;;;;;;5076611;28;20048;-79
2023/12/24 03:58:15;;;;;;;7.05;3.40;;;9.60;98.60;;;;;;5076513;28;20036;-79
2023/12/24 04:00:40;;;;;;;5.68;3.03;;;9.50;98.40;;;;;;5076465;28;20446;-78
2023/12/24 04:03:06;;;;;;;12.57;4.07;;;9.60;98.60;;;;;;5076077;28;20036;-80
2023/12/24 04:05:32;;;;;;;9.77;3.30;;;9.60;98.50;;;;;;5076246;28;20044;-81
2023/12/24 04:07:57;;;;;;;12.07;3.42;;;9.60;98.60;;;;;;5093225;28;20035;-78
2023/12/24 04:10:23;;;;;;;12.32;3.75;;;9.60;98.50;;;;;;5093050;28;20494;-78
2023/12/24 04:12:49;;;;;;;8.95;2.72;;;9.60;98.50;;;;;;5092985;28;20083;-77
2023/12/24 04:15:14;;;;;;;12.50;4.10;;;9.70;98.60;;;;;;5092963;28;20040;-78
2023/12/24 04:17:40;;;;;;;13.77;3.58;;;9.60;98.60;;;;;;5093067;28;20050;-77
2023/12/24 04:20:07;;;;;;;13.48;4.43;;;9.70;98.70;;;;;;5076066;28;20086;-78
2023/12/24 04:22:33;;;;;;;11.90;3.33;;;9.60;98.60;;;;;;5092518;28;20175;-78
2023/12/24 04:24:59;;;;;;;12.95;4.25;;;9.70;98.70;;;;;;5092561;28;20388;-77
2023/12/24 04:27:25;;;;;;;14.20;3.90;;;9.70;98.70;;;;;;5092778;28;20399;-76
2023/12/24 04:29:51;;;;;;;19.65;4.00;;;9.70;98.60;;;;;;5092481;28;20040;-78
2023/12/24 04:32:19;;;;;;;12.57;3.90;;;9.80;98.50;;;;;;5074855;28;20031;-77
2023/12/24 04:34:45;;;;;;;16.92;4.10;;;9.80;98.50;;;;;;5075815;28;20178;-79
2023/12/24 04:37:11;;;;;;;14.52;3.97;;;9.80;98.50;;;;;;5075759;28;20072;-80
2023/12/24 04:39:36;;;;;;;12.93;3.50;;;9.80;98.50;;;;;;5092439;28;20109;-79
2023/12/24 04:42:02;;;;;;;16.08;4.07;;;9.80;98.40;;;;;;5092905;28;20123;-81
2023/12/24 04:44:28;;;;;;;23.58;4.00;;;9.80;98.40;;;;;;5092699;28;20044;-78
2023/12/24 04:46:54;;;;;;;23.10;5.32;;;9.80;98.40;;;;;;5075927;28;20552;-77
2023/12/24 04:49:20;;;;;;;19.05;4.43;;;9.80;98.50;;;;;;5092484;28;20051;-80
2023/12/24 04:51:45;;;;;;;14.82;4.32;;;9.90;98.50;;;;;;5075388;28;20485;-78
2023/12/24 04:54:11;;;;;;;8.95;3.30;;;9.90;98.40;;;;;;5092549;28;20035;-80
2023/12/24 04:56:37;;;;;;;19.35;4.53;;;9.90;98.40;;;;;;5092512;28;20032;-79
2023/12/24 04:59:03;;;;;;;21.00;4.13;;;9.90;98.40;;;;;;5092557;28;20040;-78
2023/12/24 05:01:29;;;;;;;25.08;5.50;;;9.90;98.40;;;;;;5092448;28;20100;-79
2023/12/24 05:03:54;;;;;;;21.38;4.80;;;9.90;98.40;;;;;;5075436;28;20040;-77
2023/12/24 05:06:21;;;;;;;17.75;4.50;;;10.00;98.40;;;;;;5092388;28;20043;-80
2023/12/24 05:08:47;;;;;;;20.77;3.83;;;10.00;98.30;;;;;;5092039;28;20077;-80
2023/12/24 05:11:13;;;;;;;16.83;3.72;;;10.00;98.30;;;;;;5075583;28;20039;-79
2023/12/24 05:13:39;;;;;;;15.45;4.05;;;10.00;98.30;;;;;;5092336;28;20036;-81
2023/12/24 05:16:05;;;;;;;17.17;3.50;;;10.00;98.30;;;;;;5092372;28;20047;-82
2023/12/24 05:18:33;;;;;;;15.43;4.00;;;10.00;98.20;;;;;;5092086;28;20063;-78
2023/12/24 05:20:58;;;;;;;20.00;3.90;;;10.00;98.10;;;;;;5075626;28;20431;-79
2023/12/24 05:23:25;;;;;;;18.73;3.58;;;10.00;98.10;;;;;;5075472;28;20086;-82
2023/12/24 05:25:51;;;;;;;25.40;4.25;;;10.10;97.90;;;;;;5075450;28;20480;-78
2023/12/24 05:28:17;;;;;;;10.90;3.00;;;10.10;97.90;;;;;;5075843;28;20040;-79
2023/12/24 05:30:46;;;;;;;18.88;3.45;;;10.10;97.80;;;;;;5075467;28;20071;-77
2023/12/24 05:33:12;;;;;;;11.88;3.05;;;10.20;97.70;;;;;;5092098;28;20040;-78
2023/12/24 05:35:38;;;;;;;13.50;2.95;;;10.20;97.70;;;;;;5091992;28;20040;-78
2023/12/24 05:38:04;;;;;;;21.80;4.18;;;10.20;97.50;;;;;;5075258;28;20461;-80
2023/12/24 05:40:30;;;;;;;17.80;3.28;;;10.20;97.50;;;;;;5075087;28;20163;-80
2023/12/24 05:42:56;;;;;;;14.60;2.75;;;10.30;97.40;;;;;;5092603;28;20127;-79
2023/12/24 05:45:22;;;;;;;14.98;3.65;;;10.30;97.40;;;;;;5079471;28;20036;-80
2023/12/24 05:47:47;;;;;;;14.85;3.63;;;10.30;97.20;;;;;;5095674;28;20087;-79
2023/12/24 05:50:13;;;;;;;14.88;3.42;;;10.30;97.40;;;;;;5078310;28;20055;-80
2023/12/24 05:52:41;;;;;;;21.45;3.90;;;10.30;97.30;;;;;;5078807;28;20040;-79
2023/12/24 05:55:08;;;;;;;15.95;2.88;;;10.30;97.20;;;;;;5095788;28;20492;-82
2023/12/24 05:57:34;;;;;;;17.95;3.67;;;10.40;97.20;;;;;;5095671;28;20048;-78
2023/12/24 06:00:00;;;;;;;14.82;3.63;;;10.40;97.10;;;;;;5095684;28;20143;-81
2023/12/24 06:02:26;;;;;;;18.73;3.92;;;10.40;97.20;;;;;;5078831;28;20123;-78
2023/12/24 06:04:51;;;;;;;14.98;3.38;;;10.40;97.10;;;;;;5095722;28;20047;-78
2023/12/24 06:07:17;;;;;;;17.63;4.85;;;10.40;97.20;;;;;;5095552;28;20106;-78
2023/12/24 06:09:43;;;;;;;16.45;3.95;;;10.40;97.30;;;;;;5095184;28;20048;-77
2023/12/24 06:12:08;;;;;;;17.80;2.67;;;10.40;97.40;;;;;;5078671;28;20036;-79
2023/12/24 06:14:34;;;;;;;16.80;3.00;;;10.40;97.50;;;;;;5078632;28;20089;-79
2023/12/24 06:17:00;;;;;;;14.13;2.88;;;10.40;97.50;;;;;;5095230;28;20384;-78
2023/12/24 06:19:26;;;;;;;17.30;3.10;;;10.40;97.50;;;;;;5095245;28;20040;-80
2023/12/24 06:21:52;;;;;;;15.65;4.38;;;10.40;97.50;;;;;;5095189;28;20044;-80
2023/12/24 06:24:20;;;;;;;19.58;3.67;;;10.50;97.50;;;;;;5129654;27;20036;-79
2023/12/24 06:26:51;;;;;;;15.32;3.42;;;10.40;97.50;;;;;;5078211;28;20503;-79
2023/12/24 06:29:17;;;;;;;19.60;3.25;;;10.40;97.60;;;;;;5078357;28;20051;-78
2023/12/24 06:31:43;;;;;;;16.58;3.40;;;10.40;97.60;;;;;;5078108;28;20036;-80
2023/12/24 06:34:11;;;;;;;17.92;3.97;;;10.40;97.70;;;;;;5095014;28;20032;-78
2023/12/24 06:36:36;;;;;;;16.38;3.72;;;10.40;97.70;;;;;;5095023;28;20042;-78
2023/12/24 06:39:02;;;;;;;15.93;3.67;;;10.40;97.60;;;;;;5129029;27;20036;-81
2023/12/24 06:41:28;;;;;;;12.98;3.53;;;10.40;97.60;;;;;;5094551;28;20047;-79
2023/12/24 06:43:53;;;;;;;14.13;3.38;;;10.40;97.60;;;;;;5077849;28;20080;-78
2023/12/24 06:46:20;;;;;;;12.20;2.63;;;10.50;97.60;;;;;;5077835;28;20040;-78
2023/12/24 06:48:46;;;;;;;14.10;4.28;;;10.50;97.40;;;;;;5094232;28;20101;-77
2023/12/24 06:51:12;;;;;;;14.40;3.17;;;10.50;97.40;;;;;;5093916;28;20071;-78
2023/12/24 06:53:37;;;;;;;16.35;3.33;;;10.50;97.30;;;;;;5077195;28;20036;-80
2023/12/24 06:56:04;;;;;;;13.82;3.20;;;10.50;97.30;;;;;;5093487;28;20039;-81
2023/12/24 06:58:29;;;;;;;13.68;3.60;;;10.50;97.30;;;;;;5094345;28;20036;-78
2023/12/24 07:00:55;;;;;;;19.67;3.13;;;10.60;97.10;;;;;;5094499;28;20036;-79
2023/12/24 07:03:21;;;;;;;18.15;3.35;;;10.60;97.20;;;;;;5111334;28;20043;-79
2023/12/24 07:05:46;;;;;;;12.63;3.88;;;10.50;97.00;;;;;;5077797;28;20111;-79
2023/12/24 07:08:12;;;;;;;14.25;3.45;;;10.60;97.00;;;;;;5077265;28;20529;-79
2023/12/24 07:10:38;;;;;;;12.13;3.80;;;10.70;97.00;;;;;;5076662;28;20377;-81
2023/12/24 07:13:04;;;;;;;17.83;4.03;;;10.60;96.90;;;;;;5077076;28;20071;-81
2023/12/24 07:15:38;;;;;;;11.75;3.17;;;10.70;96.80;;;;;;5094320;28;20396;-78
2023/12/24 07:18:04;;;;;;;;;;;10.70;96.80;;;;;;5077501;28;20032;-78
2023/12/24 07:20:30;;;;;;;12.80;3.17;;;10.70;96.60;;;;;;5077266;28;19916;-78
2023/12/24 07:22:55;;;;;;;14.13;3.60;;;10.70;96.70;;;;;;5060668;28;20482;-79
2023/12/24 07:25:21;;;;;;;14.73;3.65;;;10.80;96.60;;;;;;5094009;28;20040;-76
2023/12/24 07:27:47;;;;;;;19.10;3.53;;;10.80;96.50;;;;;;5060280;28;20127;-80
2023/12/24 07:30:13;;;;;;;17.42;3.85;;;10.80;96.40;;;;;;5076615;28;20138;-78
2023/12/24 07:32:46;;;;;;;10.43;3.08;;;10.80;96.50;;;;;;5094034;28;20123;-78
2023/12/24 07:35:12;;;;;;;19.23;3.58;;;10.80;96.40;;;;;;5093941;28;20108;-78
2023/12/24 07:37:38;;;;;;;13.32;4.25;;;10.80;96.40;;;;;;5093796;28;20040;-77
2023/12/24 07:40:08;;;;;;;20.92;5.55;;;10.80;96.40;;;;;;5076499;28;20039;-79
2023/12/24 07:42:37;;;;;;;17.02;4.05;;;10.80;96.60;;;;;;5060562;28;20469;-78
2023/12/24 07:45:04;;;;;;;17.55;4.93;;;10.70;96.70;;;;;;5077080;28;20071;-78
2023/12/24 07:47:31;;;;;;;14.15;3.95;;;10.80;96.70;;;;;;5076637;28;20110;-78
2023/12/24 07:49:56;;;;;;;14.85;3.25;;;10.70;96.70;;;;;;5043259;28;20503;-80
2023/12/24 07:52:22;;;;;;;15.68;3.50;;;10.70;96.70;;;;;;5093554;28;20040;-77
2023/12/24 07:54:48;;;;;;;15.52;3.45;;;10.80;96.70;;;;;;5093096;28;20089;-78
2023/12/24 07:57:13;;;;;;;15.40;3.75;;;10.80;96.70;;;;;;5059253;28;20040;-80
2023/12/24 07:59:40;;;;;;;18.92;4.38;;;10.80;96.70;;;;;;5059891;28;20043;-77
2023/12/24 08:02:06;;;;;;;14.27;3.20;;;10.80;96.60;;;;;;5093060;28;20075;-79
2023/12/24 08:04:32;;;;;;;13.88;3.40;;;10.90;96.60;;;;;;5076113;28;20079;-82
2023/12/24 08:06:58;;;;;;;19.67;4.80;;;10.90;96.40;;;;;;5075804;28;20051;-77
2023/12/24 08:09:24;;;;;;;18.25;4.07;;;10.90;96.40;;;;;;5075723;28;20050;-79
2023/12/24 08:11:49;;;;;;;15.23;4.40;;;11.00;96.40;;;;;;5092760;28;20388;-81
2023/12/24 08:14:15;;;;;;;12.88;4.03;;;11.00;96.30;;;;;;5092730;28;20504;-80
2023/12/24 08:16:41;;;;;;;16.92;3.83;;;10.90;96.30;;;;;;5059312;28;20040;-80
2023/12/24 08:19:06;;;;;;;22.45;4.25;;;10.90;96.30;;;;;;5076008;28;20040;-78
2023/12/24 08:21:32;;;;;;;17.92;3.72;;;10.90;96.40;;;;;;5076204;28;20044;-78
2023/12/24 08:23:58;;;;;;;17.55;3.75;;;10.90;96.40;;;;;;5059087;28;20040;-80
2023/12/24 08:26:24;;;;;;;17.85;3.83;;;10.80;96.50;;;;;;5075874;28;20084;-81
2023/12/24 08:28:49;;;;;;;19.85;4.38;;;10.80;96.50;;;;;;5075939;28;20096;-78
2023/12/24 08:31:15;;;;;;;19.23;5.85;;;10.80;96.50;;;;;;5075633;28;20484;-80
2023/12/24 08:33:41;;;;;;;18.92;3.47;;;10.80;96.70;;;;;;5092997;28;20036;-81
2023/12/24 08:36:07;;;;;;;20.23;3.35;;;10.80;96.80;;;;;;5075896;28;20035;-78
2023/12/24 08:38:32;;;;;;;20.58;4.13;;;10.80;96.60;;;;;;5059100;28;20539;-78
2023/12/24 08:40:58;;;;;;;17.10;3.40;;;10.90;96.60;;;;;;5126750;27;20036;-80
2023/12/24 08:43:24;;;;;;;21.25;3.88;;;10.90;96.60;;;;;;5073601;28;20105;-82
2023/12/24 08:45:50;;;;;;;16.52;3.40;;;10.90;96.50;;;;;;5056117;28;20043;-79
2023/12/24 08:48:16;;;;;;;14.80;3.42;;;11.00;96.40;;;;;;5055428;28;20049;-80
2023/12/24 08:50:41;;;;;;;12.20;3.38;;;11.00;96.30;;;;;;5055849;28;20537;-79
2023/12/24 08:53:07;;;;;;;8.27;2.55;;;11.00;96.40;;;;;;5072443;28;20397;-81
2023/12/24 08:55:33;;;;;;;16.10;3.97;;;11.00;96.40;;;;;;5072309;28;20040;-81
2023/12/24 08:57:59;;;;;;;22.52;3.72;;;11.00;96.30;;;;;;5055746;28;20095;-80
2023/12/24 09:00:25;;;;;;;13.45;3.33;;;11.00;96.40;;;;;;5072516;28;20419;-80
2023/12/24 09:02:51;;;;;;;14.32;3.28;;;11.00;96.40;;;;;;5072509;28;20086;-78
2023/12/24 09:05:20;;;;;;;15.63;3.10;;;11.00;96.30;;;;;;5055424;28;20083;-79
2023/12/24 09:07:46;;;;;;;18.15;3.80;;;11.10;96.40;;;;;;5055117;28;20100;-81
2023/12/24 09:10:11;;;;;;;16.92;3.88;;;11.00;96.30;;;;;;5072086;28;20045;-79
2023/12/24 09:12:41;;;;;;;11.05;2.80;;;11.10;96.20;;;;;;5071428;28;20047;-81
2023/12/24 09:15:07;;;;;;;13.02;2.70;;;11.10;96.40;;;;;;5039345;28;20117;-81
2023/12/24 09:17:33;;;;;;;23.50;3.90;;;11.10;96.30;;;;;;5089367;28;20067;-80
2023/12/24 09:19:58;;;;;;;13.38;3.03;;;11.10;96.30;;;;;;5042669;28;20041;-77
2023/12/24 09:22:24;;;;;;;13.52;4.00;;;11.10;96.40;;;;;;5043049;28;20075;-79
2023/12/24 09:24:50;;;;;;;8.48;2.22;;;11.20;96.10;;;;;;5059533;28;20044;-82
2023/12/24 09:27:15;;;;;;;13.90;3.03;;;11.10;96.20;;;;;;5059199;28;20443;-82
2023/12/24 09:29:41;;;;;;;12.68;3.22;;;11.10;96.20;;;;;;5058695;28;20082;-79
2023/12/24 09:32:07;;;;;;;14.40;3.83;;;11.20;96.20;;;;;;5058562;28;20079;-78
2023/12/24 09:34:33;;;;;;;13.70;2.70;;;11.20;96.20;;;;;;5075576;28;20052;-77
2023/12/24 09:36:59;;;;;;;17.55;3.75;;;11.20;96.10;;;;;;5058559;28;20040;-81
2023/12/24 09:39:25;;;;;;;21.42;4.38;;;11.30;96.00;;;;;;5058305;28;20043;-78
2023/12/24 09:41:53;;;;;;;13.68;3.28;;;11.30;96.00;;;;;;5075017;28;20040;-79
2023/12/24 09:44:19;;;;;;;18.42;3.80;;;11.30;96.10;;;;;;5058311;28;20128;-77
2023/12/24 09:46:44;;;;;;;16.98;3.60;;;11.30;96.00;;;;;;5075329;28;20135;-78
2023/12/24 09:49:10;;;;;;;14.18;3.55;;;11.30;96.00;;;;;;5057952;28;20090;-81
2023/12/24 09:51:38;;;;;;;27.13;3.85;;;11.30;96.10;;;;;;5074864;28;20036;-82
2023/12/24 09:54:05;;;;;;;13.45;2.80;;;11.30;96.20;;;;;;5074695;28;20553;-81
2023/12/24 09:56:31;;;;;;;19.85;4.68;;;11.20;96.30;;;;;;5058086;28;20037;-79
2023/12/24 09:58:57;;;;;;;22.67;3.70;;;11.30;96.30;;;;;;5074831;28;20132;-79
2023/12/24 10:01:22;;;;;;;19.77;3.50;;;11.30;96.30;;;;;;5057982;28;20070;-82
2023/12/24 10:03:48;;;;;;;17.65;3.65;;;11.30;96.20;;;;;;5074540;28;20044;-79
2023/12/24 10:06:14;;;;;;;15.23;3.70;;;11.30;96.30;;;;;;5073267;28;20093;-78
2023/12/24 10:08:40;;;;;;;19.02;3.40;;;11.40;96.30;;;;;;5056880;28;20044;-77
2023/12/24 10:11:17;;;;;;;12.95;2.97;;;11.40;96.20;;;;;;5074016;28;20044;-79
2023/12/24 10:13:44;;;;;;;15.68;3.80;;;11.50;96.10;;;;;;5074531;28;20036;-79
2023/12/24 10:16:10;;;;;;;15.25;3.50;;;11.40;96.20;;;;;;5074424;28;20036;-80
2023/12/24 10:18:36;;;;;;;14.63;3.28;;;11.50;96.20;;;;;;5074330;28;20116;-79
2023/12/24 10:21:09;;;;;;;13.07;2.85;;;11.50;96.00;;;;;;5057806;28;20040;-78
2023/12/24 10:23:36;;;;;;;12.38;2.67;;;11.50;96.00;;;;;;5074515;28;20049;-81
2023/12/24 10:26:08;;;;;;;16.77;3.38;;;11.50;96.00;;;;;;5074250;28;20052;-81
2023/12/24 10:28:46;;;;;;;13.45;3.08;;;11.60;95.80;;;;;;5074222;28;20460;-77
2023/12/24 10:31:12;;;;;;;12.45;2.70;;;11.60;95.80;;;;;;5073383;28;20048;-78
2023/12/24 10:33:39;;;;;;;13.07;2.83;;;11.50;95.80;;;;;;5057395;28;20374;-79
2023/12/24 10:36:06;;;;;;;15.88;4.40;;;11.50;95.80;;;;;;5073982;28;20489;-81
2023/12/24 10:38:34;;;;;;;23.42;4.45;;;11.50;96.10;;;;;;5073927;28;20076;-80
2023/12/24 10:41:00;;;;;;;16.33;5.45;;;11.60;95.80;;;;;;5057244;28;20036;-81
2023/12/24 10:43:26;;;;;;;6.90;2.13;;;11.60;95.80;;;;;;5057501;28;20110;-77
2023/12/24 10:45:52;;;;;;;15.70;3.90;;;11.60;95.70;;;;;;5073839;28;20485;-80
2023/12/24 10:48:19;;;;;;;17.38;4.07;;;11.60;95.60;;;;;;5056996;28;20120;-78
2023/12/24 10:50:45;;;;;;;14.65;2.80;;;11.60;95.80;;;;;;5057115;28;20044;-78
2023/12/24 10:53:13;;;;;;;17.88;3.70;;;11.60;95.90;;;;;;5057173;28;20622;-81
2023/12/24 10:55:41;;;;;;;12.88;3.35;;;11.50;96.10;;;;;;5073703;28;20041;-79
2023/12/24 10:58:21;;;;;;;14.00;2.97;;;11.50;96.20;;;;;;5073549;28;20040;-82
2023/12/24 11:00:47;;;;;;;18.63;4.65;;;11.50;96.20;;;;;;5073597;28;20037;-79
2023/12/24 11:03:48;;;;;;;14.10;4.15;;;11.50;96.20;;;;;;5107436;28;20051;-78
2023/12/24 11:06:36;;;;;;;21.42;3.85;;;11.50;96.30;;;;;;5090313;28;20043;-80
2023/12/24 11:09:21;;;;;;;12.77;3.28;;;11.50;96.50;;;;;;5056551;28;20037;-81
2023/12/24 11:11:54;;;;;;;17.60;3.25;;;11.50;96.30;;;;;;5072003;28;20043;-79
2023/12/24 11:14:52;;;;;;;17.92;4.28;;;11.50;96.40;;;;;;5073532;28;20055;-80
2023/12/24 11:17:37;;;;;;;16.05;3.53;;;11.50;96.50;;;;;;5034323;28;20048;-80
2023/12/24 11:20:18;;;;;;;10.95;3.22;;;11.50;96.60;;;;;;5073376;28;20448;-77
2023/12/24 11:23:06;;;;;;;10.55;2.60;;;11.50;96.60;;;;;;5056482;28;20563;-80
2023/12/24 11:25:39;;;;;;;11.88;3.75;;;11.60;96.50;;;;;;5073126;28;20036;-78
2023/12/24 11:28:07;;;;;;;11.87;2.40;;;11.60;96.60;;;;;;5056829;28;20041;-79
2023/12/24 11:30:51;;;;;;;18.52;3.88;;;11.60;96.40;;;;;;5073142;28;20051;-81
2023/12/24 11:33:32;;;;;;;8.57;2.00;;;11.60;96.40;;;;;;5073220;28;20063;-80
2023/12/24 11:36:07;;;;;;;14.70;3.53;;;11.70;96.40;;;;;;5073067;28;20041;-81
2023/12/24 11:38:33;;;;;;;12.95;4.32;;;11.70;96.30;;;;;;5072687;28;20086;-79
2023/12/24 11:41:14;;;;;;;14.75;3.40;;;11.70;96.30;;;;;;5072626;28;20103;-80
2023/12/24 11:43:42;;;;;;;18.40;2.80;;;11.70;96.40;;;;;;5072759;28;20040;-79
2023/12/24 11:46:08;;;;;;;14.95;3.22;;;11.60;96.50;;;;;;5039429;28;20036;-77
2023/12/24 11:48:35;;;;;;;15.43;4.38;;;11.60;96.50;;;;;;5072274;28;20048;-77
2023/12/24 11:51:02;;;;;;;16.45;2.90;;;11.60;96.40;;;;;;5072577;28;20044;-77
2023/12/24 11:53:33;;;;;;;13.00;3.08;;;11.60;96.50;;;;;;5072470;28;20041;-79
2023/12/24 11:56:16;;;;;;;22.95;3.28;;;11.70;96.50;;;;;;5072509;28;20087;-79
2023/12/24 11:58:56;;;;;;;18.77;3.63;;;11.70;96.50;;;;;;5106287;28;20047;-80
2023/12/24 12:01:26;;;;;;;12.40;2.83;;;11.70;96.40;;;;;;5055756;28;20127;-81
2023/12/24 12:03:58;;;;;;;13.88;2.65;;;11.70;96.30;;;;;;5072571;28;20040;-81
2023/12/24 12:06:28;;;;;;;16.15;4.20;;;11.70;96.40;;;;;;5072274;28;20040;-79
2023/12/24 12:08:54;;;;;;;21.98;4.22;;;11.70;96.20;;;;;;5055396;28;20056;-80
2023/12/24 12:11:20;;;;;;;12.90;2.95;;;11.70;96.20;;;;;;5072223;28;20045;-79
2023/12/24 12:13:46;;;;;;;14.68;2.95;;;11.70;96.30;;;;;;5072099;28;20036;-79
2023/12/24 12:16:12;;;;;;;9.60;3.10;;;11.80;96.20;;;;;;5072118;28;20044;-81
2023/12/24 12:18:38;;;;;;;18.05;4.00;;;11.80;96.30;;;;;;5055322;28;20036;-81
2023/12/24 12:21:04;;;;;;;16.92;3.75;;;11.80;96.20;;;;;;5055634;28;20041;-81
2023/12/24 12:23:29;;;;;;;16.30;3.92;;;11.80;96.20;;;;;;5055322;28;20062;-82
2023/12/24 12:25:55;;;;;;;22.00;3.33;;;11.70;96.30;;;;;;5055339;28;20119;-80
2023/12/24 12:28:22;;;;;;;19.33;4.07;;;11.80;96.20;;;;;;5072032;28;20040;-82
2023/12/24 12:30:48;;;;;;;12.48;3.15;;;11.80;96.20;;;;;;5071797;28;20044;-79
2023/12/24 12:33:14;;;;;;;13.25;3.85;;;11.90;96.10;;;;;;5071978;28;20127;-79
2023/12/24 12:35:39;;;;;;;13.23;3.03;;;11.80;96.10;;;;;;5071866;28;20045;-81
2023/12/24 12:38:05;;;;;;;14.13;2.95;;;11.80;96.20;;;;;;5105717;28;20036;-79
2023/12/24 12:40:31;;;;;;;13.68;3.13;;;11.90;96.00;;;;;;5105604;28;20048;-78
2023/12/24 12:42:57;;;;;;;13.10;3.55;;;11.90;96.00;;;;;;5055016;28;20123;-80